sensor_id;sensor_type;location;lat;lon;timestamp;P1;durP1;ratioP1;P2;durP2;ratioP2
52776;SDS011;38656;54.260;20.822;2022-08-19T00:01:38;10.15;;;9.15;;
52776;SDS011;38656;54.260;20.822;2022-08-19T00:04:05;11.63;;;9.05;;
52776;SDS011;38656;54.260;20.822;2022-08-19T00:06:33;11.05;;;9.45;;
52776;SDS011;38656;54.260;20.822;2022-08-19T00:09:00;16.20;;;9.10;;
52776;SDS011;38656;54.260;20.822;2022-08-19T00:11:26;19.52;;;10.27;;
52776;SDS011;38656;54.260;20.822;2022-08-19T00:13:53;14.07;;;9.55;;
52776;SDS011;38656;54.260;20.822;2022-08-19T00:16:19;20.55;;;10.25;;
52776;SDS011;38656;54.260;20.822;2022-08-19T00:18:46;11.23;;;9.20;;
52776;SDS011;38656;54.260;20.822;2022-08-19T00:21:12;11.13;;;10.02;;
52776;SDS011;38656;54.260;20.822;2022-08-19T00:23:39;12.57;;;9.82;;
52776;SDS011;38656;54.260;20.822;2022-08-19T00:26:05;11.93;;;9.90;;
52776;SDS011;38656;54.260;20.822;2022-08-19T00:28:32;11.75;;;10.18;;
52776;SDS011;38656;54.260;20.822;2022-08-19T00:31:00;14.18;;;9.63;;
52776;SDS011;38656;54.260;20.822;2022-08-19T00:33:26;12.43;;;10.02;;
52776;SDS011;38656;54.260;20.822;2022-08-19T00:35:54;12.70;;;9.38;;
52776;SDS011;38656;54.260;20.822;2022-08-19T00:38:21;13.13;;;10.15;;
52776;SDS011;38656;54.260;20.822;2022-08-19T00:40:47;15.60;;;10.43;;
52776;SDS011;38656;54.260;20.822;2022-08-19T00:43:14;12.45;;;11.00;;
52776;SDS011;38656;54.260;20.822;2022-08-19T00:45:43;19.02;;;10.95;;
52776;SDS011;38656;54.260;20.822;2022-08-19T00:48:10;23.70;;;12.02;;
52776;SDS011;38656;54.260;20.822;2022-08-19T00:50:36;30.90;;;12.40;;
52776;SDS011;38656;54.260;20.822;2022-08-19T00:53:05;12.77;;;10.43;;
52776;SDS011;38656;54.260;20.822;2022-08-19T00:55:32;18.42;;;10.68;;
52776;SDS011;38656;54.260;20.822;2022-08-19T00:58:03;18.48;;;11.27;;
52776;SDS011;38656;54.260;20.822;2022-08-19T01:00:30;15.30;;;10.45;;
52776;SDS011;38656;54.260;20.822;2022-08-19T01:02:56;13.80;;;11.20;;
52776;SDS011;38656;54.260;20.822;2022-08-19T01:05:24;12.15;;;10.85;;
52776;SDS011;38656;54.260;20.822;2022-08-19T01:07:52;13.77;;;11.13;;
52776;SDS011;38656;54.260;20.822;2022-08-19T01:10:20;13.35;;;10.20;;
52776;SDS011;38656;54.260;20.822;2022-08-19T01:12:47;14.07;;;11.00;;
52776;SDS011;38656;54.260;20.822;2022-08-19T01:15:14;17.70;;;11.02;;
52776;SDS011;38656;54.260;20.822;2022-08-19T01:17:42;15.45;;;11.52;;
52776;SDS011;38656;54.260;20.822;2022-08-19T01:20:12;14.75;;;11.48;;
52776;SDS011;38656;54.260;20.822;2022-08-19T01:22:44;11.75;;;10.48;;
52776;SDS011;38656;54.260;20.822;2022-08-19T01:25:11;17.85;;;11.63;;
52776;SDS011;38656;54.260;20.822;2022-08-19T01:27:39;14.10;;;12.65;;
52776;SDS011;38656;54.260;20.822;2022-08-19T01:30:06;14.32;;;11.75;;
52776;SDS011;38656;54.260;20.822;2022-08-19T01:32:32;14.15;;;11.52;;
52776;SDS011;38656;54.260;20.822;2022-08-19T01:34:58;12.07;;;10.65;;
52776;SDS011;38656;54.260;20.822;2022-08-19T01:37:27;14.75;;;12.02;;
52776;SDS011;38656;54.260;20.822;2022-08-19T01:39:53;17.55;;;13.07;;
52776;SDS011;38656;54.260;20.822;2022-08-19T01:42:19;21.40;;;12.63;;
52776;SDS011;38656;54.260;20.822;2022-08-19T01:44:47;13.50;;;12.25;;
52776;SDS011;38656;54.260;20.822;2022-08-19T01:47:13;12.73;;;11.45;;
52776;SDS011;38656;54.260;20.822;2022-08-19T01:49:41;14.75;;;11.98;;
52776;SDS011;38656;54.260;20.822;2022-08-19T01:52:07;25.63;;;12.57;;
52776;SDS011;38656;54.260;20.822;2022-08-19T01:54:33;12.55;;;11.20;;
52776;SDS011;38656;54.260;20.822;2022-08-19T01:57:07;12.43;;;11.27;;
52776;SDS011;38656;54.260;20.822;2022-08-19T01:59:34;13.07;;;11.73;;
52776;SDS011;38656;54.260;20.822;2022-08-19T02:02:01;14.32;;;12.20;;
52776;SDS011;38656;54.260;20.822;2022-08-19T02:04:27;12.63;;;11.40;;
52776;SDS011;38656;54.260;20.822;2022-08-19T02:06:53;12.68;;;10.85;;
52776;SDS011;38656;54.260;20.822;2022-08-19T02:09:19;13.40;;;11.32;;
52776;SDS011;38656;54.260;20.822;2022-08-19T02:11:46;13.75;;;11.13;;
52776;SDS011;38656;54.260;20.822;2022-08-19T02:14:12;13.32;;;12.00;;
52776;SDS011;38656;54.260;20.822;2022-08-19T02:16:38;13.65;;;12.32;;
52776;SDS011;38656;54.260;20.822;2022-08-19T02:19:05;13.75;;;12.05;;
52776;SDS011;38656;54.260;20.822;2022-08-19T02:21:31;13.57;;;12.18;;
52776;SDS011;38656;54.260;20.822;2022-08-19T02:23:58;16.08;;;13.18;;
52776;SDS011;38656;54.260;20.822;2022-08-19T02:26:24;15.10;;;13.13;;
52776;SDS011;38656;54.260;20.822;2022-08-19T02:28:51;14.30;;;12.93;;
52776;SDS011;38656;54.260;20.822;2022-08-19T02:31:19;19.63;;;13.82;;
52776;SDS011;38656;54.260;20.822;2022-08-19T02:33:46;17.90;;;12.32;;
52776;SDS011;38656;54.260;20.822;2022-08-19T02:36:12;14.60;;;12.90;;
52776;SDS011;38656;54.260;20.822;2022-08-19T02:38:39;13.40;;;11.32;;
52776;SDS011;38656;54.260;20.822;2022-08-19T02:41:11;13.25;;;11.95;;
52776;SDS011;38656;54.260;20.822;2022-08-19T02:43:37;14.45;;;12.82;;
52776;SDS011;38656;54.260;20.822;2022-08-19T02:46:38;12.10;;;10.90;;
52776;SDS011;38656;54.260;20.822;2022-08-19T02:48:59;14.57;;;11.27;;
52776;SDS011;38656;54.260;20.822;2022-08-19T02:51:26;13.35;;;11.68;;
52776;SDS011;38656;54.260;20.822;2022-08-19T02:53:53;12.80;;;11.27;;
52776;SDS011;38656;54.260;20.822;2022-08-19T02:56:19;16.20;;;11.98;;
52776;SDS011;38656;54.260;20.822;2022-08-19T02:58:45;12.95;;;11.52;;
52776;SDS011;38656;54.260;20.822;2022-08-19T03:01:19;16.40;;;12.68;;
52776;SDS011;38656;54.260;20.822;2022-08-19T03:03:45;15.00;;;13.63;;
52776;SDS011;38656;54.260;20.822;2022-08-19T03:06:12;19.10;;;13.40;;
52776;SDS011;38656;54.260;20.822;2022-08-19T03:08:39;19.70;;;14.57;;
52776;SDS011;38656;54.260;20.822;2022-08-19T03:11:06;29.80;;;16.83;;
52776;SDS011;38656;54.260;20.822;2022-08-19T03:13:32;17.17;;;15.10;;
52776;SDS011;38656;54.260;20.822;2022-08-19T03:15:58;23.30;;;14.05;;
52776;SDS011;38656;54.260;20.822;2022-08-19T03:18:24;16.15;;;14.48;;
52776;SDS011;38656;54.260;20.822;2022-08-19T03:20:51;14.82;;;13.40;;
52776;SDS011;38656;54.260;20.822;2022-08-19T03:23:21;16.17;;;13.65;;
52776;SDS011;38656;54.260;20.822;2022-08-19T03:25:47;13.70;;;12.18;;
52776;SDS011;38656;54.260;20.822;2022-08-19T03:28:14;14.82;;;13.43;;
52776;SDS011;38656;54.260;20.822;2022-08-19T03:30:42;19.38;;;13.43;;
52776;SDS011;38656;54.260;20.822;2022-08-19T03:33:09;15.35;;;13.82;;
52776;SDS011;38656;54.260;20.822;2022-08-19T03:35:37;14.90;;;13.18;;
52776;SDS011;38656;54.260;20.822;2022-08-19T03:38:04;27.40;;;14.15;;
52776;SDS011;38656;54.260;20.822;2022-08-19T03:40:31;16.52;;;13.80;;
52776;SDS011;38656;54.260;20.822;2022-08-19T03:42:57;16.25;;;13.50;;
52776;SDS011;38656;54.260;20.822;2022-08-19T03:45:23;18.83;;;13.27;;
52776;SDS011;38656;54.260;20.822;2022-08-19T03:47:49;12.98;;;11.40;;
52776;SDS011;38656;54.260;20.822;2022-08-19T03:50:15;15.52;;;14.02;;
52776;SDS011;38656;54.260;20.822;2022-08-19T03:52:42;17.75;;;14.45;;
52776;SDS011;38656;54.260;20.822;2022-08-19T03:55:13;18.20;;;16.30;;
52776;SDS011;38656;54.260;20.822;2022-08-19T03:57:39;17.75;;;15.95;;
52776;SDS011;38656;54.260;20.822;2022-08-19T04:00:05;19.33;;;16.10;;
52776;SDS011;38656;54.260;20.822;2022-08-19T04:02:32;19.85;;;16.17;;
52776;SDS011;38656;54.260;20.822;2022-08-19T04:04:58;17.88;;;15.88;;
52776;SDS011;38656;54.260;20.822;2022-08-19T04:07:24;18.38;;;14.93;;
52776;SDS011;38656;54.260;20.822;2022-08-19T04:09:50;19.02;;;14.80;;
52776;SDS011;38656;54.260;20.822;2022-08-19T04:12:16;23.52;;;14.45;;
52776;SDS011;38656;54.260;20.822;2022-08-19T04:14:44;15.48;;;13.48;;
52776;SDS011;38656;54.260;20.822;2022-08-19T04:17:10;22.30;;;14.32;;
52776;SDS011;38656;54.260;20.822;2022-08-19T04:19:37;20.83;;;15.13;;
52776;SDS011;38656;54.260;20.822;2022-08-19T04:22:04;15.88;;;14.18;;
52776;SDS011;38656;54.260;20.822;2022-08-19T04:24:30;18.40;;;13.52;;
52776;SDS011;38656;54.260;20.822;2022-08-19T04:26:56;21.10;;;13.80;;
52776;SDS011;38656;54.260;20.822;2022-08-19T04:29:23;23.80;;;13.00;;
52776;SDS011;38656;54.260;20.822;2022-08-19T04:31:52;20.08;;;13.32;;
52776;SDS011;38656;54.260;20.822;2022-08-19T04:34:19;18.70;;;13.68;;
52776;SDS011;38656;54.260;20.822;2022-08-19T04:36:49;20.95;;;12.60;;
52776;SDS011;38656;54.260;20.822;2022-08-19T04:39:19;14.07;;;12.45;;
52776;SDS011;38656;54.260;20.822;2022-08-19T04:41:46;19.38;;;12.48;;
52776;SDS011;38656;54.260;20.822;2022-08-19T04:44:31;14.35;;;11.60;;
52776;SDS011;38656;54.260;20.822;2022-08-19T04:46:58;15.93;;;12.20;;
52776;SDS011;38656;54.260;20.822;2022-08-19T04:49:24;14.27;;;11.68;;
52776;SDS011;38656;54.260;20.822;2022-08-19T04:51:51;12.63;;;11.32;;
52776;SDS011;38656;54.260;20.822;2022-08-19T04:54:19;17.83;;;11.43;;
52776;SDS011;38656;54.260;20.822;2022-08-19T04:56:47;19.13;;;11.18;;
52776;SDS011;38656;54.260;20.822;2022-08-19T04:59:14;16.30;;;11.48;;
52776;SDS011;38656;54.260;20.822;2022-08-19T05:01:42;16.00;;;11.88;;
52776;SDS011;38656;54.260;20.822;2022-08-19T05:04:08;18.02;;;11.98;;
52776;SDS011;38656;54.260;20.822;2022-08-19T05:06:34;16.48;;;12.98;;
52776;SDS011;38656;54.260;20.822;2022-08-19T05:09:02;16.77;;;11.98;;
52776;SDS011;38656;54.260;20.822;2022-08-19T05:11:30;27.95;;;12.80;;
52776;SDS011;38656;54.260;20.822;2022-08-19T05:13:57;28.75;;;12.88;;
52776;SDS011;38656;54.260;20.822;2022-08-19T05:16:23;25.83;;;15.43;;
52776;SDS011;38656;54.260;20.822;2022-08-19T05:18:50;18.45;;;13.27;;
52776;SDS011;38656;54.260;20.822;2022-08-19T05:21:35;19.35;;;14.50;;
52776;SDS011;38656;54.260;20.822;2022-08-19T05:24:21;22.50;;;12.18;;
52776;SDS011;38656;54.260;20.822;2022-08-19T05:26:49;15.88;;;11.52;;
52776;SDS011;38656;54.260;20.822;2022-08-19T05:29:17;12.20;;;10.38;;
52776;SDS011;38656;54.260;20.822;2022-08-19T05:31:44;13.02;;;11.70;;
52776;SDS011;38656;54.260;20.822;2022-08-19T05:34:10;15.05;;;10.50;;
52776;SDS011;38656;54.260;20.822;2022-08-19T05:36:38;20.27;;;11.10;;
52776;SDS011;38656;54.260;20.822;2022-08-19T05:39:05;12.15;;;10.75;;
52776;SDS011;38656;54.260;20.822;2022-08-19T05:41:31;16.88;;;11.80;;
52776;SDS011;38656;54.260;20.822;2022-08-19T05:43:57;14.02;;;11.40;;
52776;SDS011;38656;54.260;20.822;2022-08-19T05:46:24;14.55;;;11.23;;
52776;SDS011;38656;54.260;20.822;2022-08-19T05:48:50;15.27;;;11.43;;
52776;SDS011;38656;54.260;20.822;2022-08-19T05:51:16;19.83;;;11.23;;
52776;SDS011;38656;54.260;20.822;2022-08-19T05:53:42;14.77;;;11.07;;
52776;SDS011;38656;54.260;20.822;2022-08-19T05:56:12;14.32;;;11.43;;
52776;SDS011;38656;54.260;20.822;2022-08-19T05:58:41;14.23;;;10.68;;
52776;SDS011;38656;54.260;20.822;2022-08-19T06:01:10;14.50;;;11.00;;
52776;SDS011;38656;54.260;20.822;2022-08-19T06:03:37;11.25;;;10.15;;
52776;SDS011;38656;54.260;20.822;2022-08-19T06:06:04;16.85;;;10.48;;
52776;SDS011;38656;54.260;20.822;2022-08-19T06:08:31;14.07;;;10.80;;
52776;SDS011;38656;54.260;20.822;2022-08-19T06:10:58;12.07;;;10.32;;
52776;SDS011;38656;54.260;20.822;2022-08-19T06:13:36;12.20;;;9.77;;
52776;SDS011;38656;54.260;20.822;2022-08-19T06:16:03;18.65;;;10.90;;
52776;SDS011;38656;54.260;20.822;2022-08-19T06:18:29;17.55;;;9.88;;
52776;SDS011;38656;54.260;20.822;2022-08-19T06:20:55;15.05;;;10.35;;
52776;SDS011;38656;54.260;20.822;2022-08-19T06:23:22;12.15;;;9.55;;
52776;SDS011;38656;54.260;20.822;2022-08-19T06:25:48;11.45;;;9.40;;
52776;SDS011;38656;54.260;20.822;2022-08-19T06:28:14;10.60;;;8.55;;
52776;SDS011;38656;54.260;20.822;2022-08-19T06:30:40;11.90;;;9.90;;
52776;SDS011;38656;54.260;20.822;2022-08-19T06:33:06;14.25;;;8.85;;
52776;SDS011;38656;54.260;20.822;2022-08-19T06:35:32;10.98;;;8.52;;
52776;SDS011;38656;54.260;20.822;2022-08-19T06:37:58;15.45;;;9.55;;
52776;SDS011;38656;54.260;20.822;2022-08-19T06:40:30;13.52;;;8.75;;
52776;SDS011;38656;54.260;20.822;2022-08-19T06:42:56;14.48;;;8.98;;
52776;SDS011;38656;54.260;20.822;2022-08-19T06:45:24;19.48;;;9.35;;
52776;SDS011;38656;54.260;20.822;2022-08-19T06:47:51;19.05;;;8.60;;
52776;SDS011;38656;54.260;20.822;2022-08-19T06:50:19;19.10;;;8.90;;
52776;SDS011;38656;54.260;20.822;2022-08-19T06:52:45;12.65;;;8.07;;
52776;SDS011;38656;54.260;20.822;2022-08-19T06:55:12;17.20;;;9.70;;
52776;SDS011;38656;54.260;20.822;2022-08-19T06:57:39;15.88;;;8.40;;
52776;SDS011;38656;54.260;20.822;2022-08-19T07:00:05;16.00;;;8.93;;
52776;SDS011;38656;54.260;20.822;2022-08-19T07:02:35;14.48;;;8.90;;
52776;SDS011;38656;54.260;20.822;2022-08-19T07:05:03;15.18;;;8.35;;
52776;SDS011;38656;54.260;20.822;2022-08-19T07:07:30;13.52;;;8.55;;
52776;SDS011;38656;54.260;20.822;2022-08-19T07:09:56;11.23;;;8.60;;
52776;SDS011;38656;54.260;20.822;2022-08-19T07:12:22;16.80;;;8.70;;
52776;SDS011;38656;54.260;20.822;2022-08-19T07:14:48;10.55;;;7.82;;
52776;SDS011;38656;54.260;20.822;2022-08-19T07:17:14;16.73;;;8.32;;
52776;SDS011;38656;54.260;20.822;2022-08-19T07:19:41;21.08;;;8.57;;
52776;SDS011;38656;54.260;20.822;2022-08-19T07:22:08;16.05;;;8.38;;
52776;SDS011;38656;54.260;20.822;2022-08-19T07:24:34;12.93;;;8.00;;
52776;SDS011;38656;54.260;20.822;2022-08-19T07:27:01;13.63;;;7.82;;
52776;SDS011;38656;54.260;20.822;2022-08-19T07:29:29;14.68;;;7.72;;
52776;SDS011;38656;54.260;20.822;2022-08-19T07:31:57;10.02;;;7.65;;
52776;SDS011;38656;54.260;20.822;2022-08-19T07:34:24;19.20;;;9.25;;
52776;SDS011;38656;54.260;20.822;2022-08-19T07:36:50;13.15;;;7.72;;
52776;SDS011;38656;54.260;20.822;2022-08-19T07:39:18;18.58;;;7.20;;
52776;SDS011;38656;54.260;20.822;2022-08-19T07:41:45;16.38;;;7.20;;
52776;SDS011;38656;54.260;20.822;2022-08-19T07:44:12;12.45;;;6.90;;
52776;SDS011;38656;54.260;20.822;2022-08-19T07:46:40;8.80;;;7.60;;
52776;SDS011;38656;54.260;20.822;2022-08-19T07:49:07;19.83;;;7.43;;
52776;SDS011;38656;54.260;20.822;2022-08-19T07:51:38;9.70;;;7.80;;
52776;SDS011;38656;54.260;20.822;2022-08-19T07:54:04;11.40;;;7.40;;
52776;SDS011;38656;54.260;20.822;2022-08-19T07:56:31;15.23;;;6.43;;
52776;SDS011;38656;54.260;20.822;2022-08-19T07:58:57;11.60;;;7.30;;
52776;SDS011;38656;54.260;20.822;2022-08-19T08:01:24;12.98;;;7.55;;
52776;SDS011;38656;54.260;20.822;2022-08-19T08:03:51;11.90;;;6.65;;
52776;SDS011;38656;54.260;20.822;2022-08-19T08:06:37;12.93;;;7.00;;
52776;SDS011;38656;54.260;20.822;2022-08-19T08:09:32;15.23;;;7.80;;
52776;SDS011;38656;54.260;20.822;2022-08-19T08:12:00;15.13;;;7.18;;
52776;SDS011;38656;54.260;20.822;2022-08-19T08:14:29;13.65;;;7.22;;
52776;SDS011;38656;54.260;20.822;2022-08-19T08:16:56;12.60;;;6.63;;
52776;SDS011;38656;54.260;20.822;2022-08-19T08:19:23;12.35;;;6.28;;
52776;SDS011;38656;54.260;20.822;2022-08-19T08:21:53;15.48;;;6.55;;
52776;SDS011;38656;54.260;20.822;2022-08-19T08:24:19;11.68;;;6.32;;
52776;SDS011;38656;54.260;20.822;2022-08-19T08:26:45;11.07;;;5.45;;
52776;SDS011;38656;54.260;20.822;2022-08-19T08:29:12;14.82;;;6.07;;
52776;SDS011;38656;54.260;20.822;2022-08-19T08:31:42;11.00;;;5.72;;
52776;SDS011;38656;54.260;20.822;2022-08-19T08:34:08;15.85;;;6.18;;
52776;SDS011;38656;54.260;20.822;2022-08-19T08:36:39;12.45;;;6.20;;
52776;SDS011;38656;54.260;20.822;2022-08-19T08:39:07;14.70;;;5.53;;
52776;SDS011;38656;54.260;20.822;2022-08-19T08:41:53;10.90;;;5.03;;
52776;SDS011;38656;54.260;20.822;2022-08-19T08:44:23;11.30;;;5.95;;
52776;SDS011;38656;54.260;20.822;2022-08-19T08:46:55;17.38;;;5.38;;
52776;SDS011;38656;54.260;20.822;2022-08-19T08:52:06;7.68;;;4.20;;
52776;SDS011;38656;54.260;20.822;2022-08-19T08:54:37;11.70;;;4.53;;
52776;SDS011;38656;54.260;20.822;2022-08-19T08:57:27;9.40;;;4.05;;
52776;SDS011;38656;54.260;20.822;2022-08-19T08:59:57;11.57;;;4.93;;
52776;SDS011;38656;54.260;20.822;2022-08-19T09:02:30;11.88;;;5.00;;
52776;SDS011;38656;54.260;20.822;2022-08-19T09:04:56;11.55;;;5.05;;
52776;SDS011;38656;54.260;20.822;2022-08-19T09:07:30;13.65;;;5.07;;
52776;SDS011;38656;54.260;20.822;2022-08-19T09:10:09;10.00;;;4.53;;
52776;SDS011;38656;54.260;20.822;2022-08-19T09:12:46;12.90;;;4.85;;
52776;SDS011;38656;54.260;20.822;2022-08-19T09:18:18;38.20;;;6.55;;
52776;SDS011;38656;54.260;20.822;2022-08-19T09:20:47;20.92;;;4.82;;
52776;SDS011;38656;54.260;20.822;2022-08-19T09:23:13;10.95;;;4.40;;
52776;SDS011;38656;54.260;20.822;2022-08-19T09:25:39;6.40;;;3.83;;
52776;SDS011;38656;54.260;20.822;2022-08-19T09:28:05;9.90;;;4.15;;
52776;SDS011;38656;54.260;20.822;2022-08-19T09:30:33;10.93;;;3.88;;
52776;SDS011;38656;54.260;20.822;2022-08-19T09:33:00;10.93;;;3.95;;
52776;SDS011;38656;54.260;20.822;2022-08-19T09:35:27;8.77;;;4.53;;
52776;SDS011;38656;54.260;20.822;2022-08-19T09:37:54;11.88;;;4.47;;
52776;SDS011;38656;54.260;20.822;2022-08-19T09:40:20;16.85;;;4.18;;
52776;SDS011;38656;54.260;20.822;2022-08-19T09:42:46;8.35;;;4.85;;
52776;SDS011;38656;54.260;20.822;2022-08-19T09:45:13;11.32;;;4.22;;
52776;SDS011;38656;54.260;20.822;2022-08-19T09:47:39;9.75;;;4.50;;
52776;SDS011;38656;54.260;20.822;2022-08-19T09:50:06;6.72;;;4.22;;
52776;SDS011;38656;54.260;20.822;2022-08-19T09:52:33;10.10;;;4.15;;
52776;SDS011;38656;54.260;20.822;2022-08-19T09:55:05;11.43;;;4.43;;
52776;SDS011;38656;54.260;20.822;2022-08-19T09:57:31;7.55;;;3.55;;
52776;SDS011;38656;54.260;20.822;2022-08-19T09:59:57;9.82;;;4.00;;
52776;SDS011;38656;54.260;20.822;2022-08-19T10:02:24;9.40;;;4.30;;
52776;SDS011;38656;54.260;20.822;2022-08-19T10:04:50;6.75;;;4.50;;
52776;SDS011;38656;54.260;20.822;2022-08-19T10:07:35;9.30;;;4.38;;
52776;SDS011;38656;54.260;20.822;2022-08-19T10:10:02;9.85;;;4.15;;
52776;SDS011;38656;54.260;20.822;2022-08-19T10:12:29;11.75;;;4.57;;
52776;SDS011;38656;54.260;20.822;2022-08-19T10:14:55;9.05;;;4.10;;
52776;SDS011;38656;54.260;20.822;2022-08-19T10:17:21;8.88;;;4.35;;
52776;SDS011;38656;54.260;20.822;2022-08-19T10:19:47;10.25;;;4.10;;
52776;SDS011;38656;54.260;20.822;2022-08-19T10:22:13;7.90;;;4.18;;
52776;SDS011;38656;54.260;20.822;2022-08-19T10:24:40;18.55;;;4.90;;
52776;SDS011;38656;54.260;20.822;2022-08-19T10:27:06;10.77;;;4.47;;
52776;SDS011;38656;54.260;20.822;2022-08-19T10:29:32;8.60;;;4.32;;
52776;SDS011;38656;54.260;20.822;2022-08-19T10:32:03;15.05;;;4.53;;
52776;SDS011;38656;54.260;20.822;2022-08-19T10:34:31;6.75;;;4.32;;
52776;SDS011;38656;54.260;20.822;2022-08-19T10:37:02;6.88;;;4.30;;
52776;SDS011;38656;54.260;20.822;2022-08-19T10:39:30;10.40;;;4.28;;
52776;SDS011;38656;54.260;20.822;2022-08-19T10:41:57;11.25;;;3.88;;
52776;SDS011;38656;54.260;20.822;2022-08-19T10:44:25;8.23;;;4.20;;
52776;SDS011;38656;54.260;20.822;2022-08-19T10:46:53;10.43;;;4.22;;
52776;SDS011;38656;54.260;20.822;2022-08-19T10:49:19;9.85;;;4.75;;
52776;SDS011;38656;54.260;20.822;2022-08-19T10:51:45;24.15;;;5.40;;
52776;SDS011;38656;54.260;20.822;2022-08-19T10:54:32;9.25;;;4.82;;
52776;SDS011;38656;54.260;20.822;2022-08-19T10:57:17;12.77;;;4.28;;
52776;SDS011;38656;54.260;20.822;2022-08-19T10:59:43;9.52;;;4.55;;
52776;SDS011;38656;54.260;20.822;2022-08-19T11:02:10;17.00;;;4.07;;
52776;SDS011;38656;54.260;20.822;2022-08-19T11:04:37;9.88;;;4.38;;
52776;SDS011;38656;54.260;20.822;2022-08-19T11:07:04;8.05;;;4.00;;
52776;SDS011;38656;54.260;20.822;2022-08-19T11:09:30;7.18;;;3.88;;
52776;SDS011;38656;54.260;20.822;2022-08-19T11:11:57;15.40;;;4.50;;
52776;SDS011;38656;54.260;20.822;2022-08-19T11:14:23;10.60;;;4.72;;
52776;SDS011;38656;54.260;20.822;2022-08-19T11:16:50;10.90;;;4.40;;
52776;SDS011;38656;54.260;20.822;2022-08-19T11:19:18;6.35;;;3.90;;
52776;SDS011;38656;54.260;20.822;2022-08-19T11:21:45;5.78;;;4.28;;
52776;SDS011;38656;54.260;20.822;2022-08-19T11:24:13;9.80;;;3.92;;
52776;SDS011;38656;54.260;20.822;2022-08-19T11:26:40;6.90;;;4.45;;
52776;SDS011;38656;54.260;20.822;2022-08-19T11:29:07;6.80;;;4.10;;
52776;SDS011;38656;54.260;20.822;2022-08-19T11:31:37;14.65;;;4.75;;
52776;SDS011;38656;54.260;20.822;2022-08-19T11:34:05;7.20;;;5.50;;
52776;SDS011;38656;54.260;20.822;2022-08-19T11:36:32;7.95;;;4.00;;
52776;SDS011;38656;54.260;20.822;2022-08-19T11:38:59;11.38;;;5.10;;
52776;SDS011;38656;54.260;20.822;2022-08-19T11:41:25;7.00;;;3.80;;
52776;SDS011;38656;54.260;20.822;2022-08-19T11:43:51;11.93;;;4.40;;
52776;SDS011;38656;54.260;20.822;2022-08-19T11:46:20;9.93;;;4.07;;
52776;SDS011;38656;54.260;20.822;2022-08-19T11:48:47;9.85;;;4.32;;
52776;SDS011;38656;54.260;20.822;2022-08-19T11:51:17;6.95;;;3.97;;
52776;SDS011;38656;54.260;20.822;2022-08-19T11:53:44;7.68;;;4.15;;
52776;SDS011;38656;54.260;20.822;2022-08-19T11:56:10;13.80;;;4.20;;
52776;SDS011;38656;54.260;20.822;2022-08-19T11:58:37;11.27;;;5.00;;
52776;SDS011;38656;54.260;20.822;2022-08-19T12:01:13;8.85;;;4.60;;
52776;SDS011;38656;54.260;20.822;2022-08-19T12:03:44;5.30;;;3.63;;
52776;SDS011;38656;54.260;20.822;2022-08-19T12:06:12;7.80;;;4.00;;
52776;SDS011;38656;54.260;20.822;2022-08-19T12:08:39;10.57;;;3.70;;
52776;SDS011;38656;54.260;20.822;2022-08-19T12:11:05;12.32;;;4.13;;
52776;SDS011;38656;54.260;20.822;2022-08-19T12:13:35;10.73;;;4.10;;
52776;SDS011;38656;54.260;20.822;2022-08-19T12:16:06;7.88;;;4.30;;
52776;SDS011;38656;54.260;20.822;2022-08-19T12:18:33;6.50;;;4.07;;
52776;SDS011;38656;54.260;20.822;2022-08-19T12:20:59;11.93;;;4.03;;
52776;SDS011;38656;54.260;20.822;2022-08-19T12:23:26;11.32;;;4.43;;
52776;SDS011;38656;54.260;20.822;2022-08-19T12:25:52;8.18;;;4.45;;
52776;SDS011;38656;54.260;20.822;2022-08-19T12:28:20;15.27;;;4.75;;
52776;SDS011;38656;54.260;20.822;2022-08-19T12:30:46;5.03;;;3.75;;
52776;SDS011;38656;54.260;20.822;2022-08-19T12:33:13;8.43;;;4.45;;
52776;SDS011;38656;54.260;20.822;2022-08-19T12:35:40;6.00;;;4.13;;
52776;SDS011;38656;54.260;20.822;2022-08-19T12:38:06;13.27;;;3.90;;
52776;SDS011;38656;54.260;20.822;2022-08-19T12:40:32;9.25;;;4.40;;
52776;SDS011;38656;54.260;20.822;2022-08-19T12:42:58;6.00;;;4.80;;
52776;SDS011;38656;54.260;20.822;2022-08-19T12:45:24;6.20;;;4.18;;
52776;SDS011;38656;54.260;20.822;2022-08-19T12:47:50;11.60;;;4.20;;
52776;SDS011;38656;54.260;20.822;2022-08-19T12:50:18;11.35;;;5.57;;
52776;SDS011;38656;54.260;20.822;2022-08-19T12:52:46;13.52;;;4.30;;
52776;SDS011;38656;54.260;20.822;2022-08-19T12:55:12;12.57;;;4.22;;
52776;SDS011;38656;54.260;20.822;2022-08-19T12:57:39;8.60;;;4.43;;
52776;SDS011;38656;54.260;20.822;2022-08-19T13:00:07;4.60;;;3.50;;
52776;SDS011;38656;54.260;20.822;2022-08-19T13:02:37;7.80;;;4.82;;
52776;SDS011;38656;54.260;20.822;2022-08-19T13:05:04;8.88;;;3.92;;
52776;SDS011;38656;54.260;20.822;2022-08-19T13:07:32;26.55;;;4.90;;
52776;SDS011;38656;54.260;20.822;2022-08-19T13:09:58;10.40;;;4.28;;
52776;SDS011;38656;54.260;20.822;2022-08-19T13:12:25;7.93;;;4.32;;
52776;SDS011;38656;54.260;20.822;2022-08-19T13:14:52;10.50;;;4.30;;
52776;SDS011;38656;54.260;20.822;2022-08-19T13:17:18;6.95;;;4.10;;
52776;SDS011;38656;54.260;20.822;2022-08-19T13:19:44;13.18;;;4.00;;
52776;SDS011;38656;54.260;20.822;2022-08-19T13:22:10;14.77;;;5.53;;
52776;SDS011;38656;54.260;20.822;2022-08-19T13:24:37;10.43;;;4.38;;
52776;SDS011;38656;54.260;20.822;2022-08-19T13:27:03;11.90;;;4.57;;
52776;SDS011;38656;54.260;20.822;2022-08-19T13:29:30;6.93;;;4.40;;
52776;SDS011;38656;54.260;20.822;2022-08-19T13:32:15;12.18;;;5.68;;
52776;SDS011;38656;54.260;20.822;2022-08-19T13:34:59;5.95;;;4.35;;
52776;SDS011;38656;54.260;20.822;2022-08-19T13:37:25;8.30;;;4.60;;
52776;SDS011;38656;54.260;20.822;2022-08-19T13:40:08;13.88;;;4.90;;
52776;SDS011;38656;54.260;20.822;2022-08-19T13:42:40;13.82;;;5.05;;
52776;SDS011;38656;54.260;20.822;2022-08-19T13:45:06;8.82;;;5.20;;
52776;SDS011;38656;54.260;20.822;2022-08-19T13:47:33;6.85;;;3.90;;
52776;SDS011;38656;54.260;20.822;2022-08-19T13:50:08;13.18;;;4.65;;
52776;SDS011;38656;54.260;20.822;2022-08-19T13:52:35;11.27;;;4.82;;
52776;SDS011;38656;54.260;20.822;2022-08-19T13:55:01;32.35;;;5.68;;
52776;SDS011;38656;54.260;20.822;2022-08-19T13:57:29;13.43;;;4.93;;
52776;SDS011;38656;54.260;20.822;2022-08-19T13:59:55;7.93;;;4.07;;
52776;SDS011;38656;54.260;20.822;2022-08-19T14:02:23;11.93;;;4.55;;
52776;SDS011;38656;54.260;20.822;2022-08-19T14:05:04;10.88;;;4.75;;
52776;SDS011;38656;54.260;20.822;2022-08-19T14:07:34;9.77;;;5.15;;
52776;SDS011;38656;54.260;20.822;2022-08-19T14:10:01;8.02;;;4.60;;
52776;SDS011;38656;54.260;20.822;2022-08-19T14:12:28;10.18;;;4.50;;
52776;SDS011;38656;54.260;20.822;2022-08-19T14:14:57;8.68;;;4.60;;
52776;SDS011;38656;54.260;20.822;2022-08-19T14:17:23;13.63;;;3.97;;
52776;SDS011;38656;54.260;20.822;2022-08-19T14:19:50;13.48;;;4.85;;
52776;SDS011;38656;54.260;20.822;2022-08-19T14:22:17;12.45;;;4.20;;
52776;SDS011;38656;54.260;20.822;2022-08-19T14:24:43;15.20;;;4.35;;
52776;SDS011;38656;54.260;20.822;2022-08-19T14:27:09;13.82;;;4.10;;
52776;SDS011;38656;54.260;20.822;2022-08-19T14:29:36;7.30;;;4.35;;